createdAt,value
2023-10-09T00:00:20.903Z,25.30
2023-10-09T00:02:49.549Z,27.90
2023-10-09T00:05:24.762Z,25.47
2023-10-09T00:07:57.063Z,25.63
2023-10-09T00:10:25.952Z,24.73
2023-10-09T00:12:53.594Z,25.80
2023-10-09T00:15:22.113Z,28.37
2023-10-09T00:17:50.472Z,28.40
2023-10-09T00:20:21.953Z,25.00
2023-10-09T00:22:49.590Z,26.43
2023-10-09T00:25:23.286Z,25.13
2023-10-09T00:27:50.933Z,23.80
2023-10-09T00:30:22.047Z,23.27
2023-10-09T00:33:00.715Z,22.33
2023-10-09T00:35:47.789Z,22.80
2023-10-09T00:38:25.032Z,22.23
2023-10-09T00:41:10.991Z,21.37
2023-10-09T00:43:39.133Z,21.50
2023-10-09T00:46:13.597Z,22.30
2023-10-09T00:48:41.974Z,21.00
2023-10-09T00:51:19.513Z,20.73
2023-10-09T00:53:51.865Z,23.43
2023-10-09T00:56:29.624Z,21.90
2023-10-09T00:59:01.432Z,22.40
2023-10-09T01:01:35.651Z,23.00
2023-10-09T01:04:08.156Z,21.73
2023-10-09T01:06:44.107Z,20.37
2023-10-09T01:09:15.135Z,20.20
2023-10-09T01:11:50.170Z,22.70
2023-10-09T01:14:18.382Z,23.70
2023-10-09T01:16:48.068Z,22.30
2023-10-09T01:19:21.419Z,22.30
2023-10-09T01:21:51.194Z,21.80
2023-10-09T01:24:21.719Z,22.00
2023-10-09T01:26:50.633Z,22.37
2023-10-09T01:29:20.612Z,22.13
2023-10-09T01:31:56.002Z,21.33
2023-10-09T01:34:27.566Z,22.80
2023-10-09T01:36:57.057Z,21.80
2023-10-09T01:39:29.278Z,22.83
2023-10-09T01:42:00.607Z,22.37
2023-10-09T01:44:29.719Z,21.73
2023-10-09T01:46:59.472Z,22.20
2023-10-09T01:49:33.299Z,23.13
2023-10-09T01:52:08.051Z,22.00
2023-10-09T01:54:38.698Z,21.77
2023-10-09T01:57:13.121Z,22.40
2023-10-09T01:59:44.978Z,22.00
2023-10-09T02:02:32.367Z,23.23
2023-10-09T02:05:11.040Z,22.80
2023-10-09T02:07:52.653Z,23.70
2023-10-09T02:10:26.847Z,23.93
2023-10-09T02:12:58.893Z,23.10
2023-10-09T02:18:28.707Z,25.00
2023-10-09T02:21:14.550Z,24.63
2023-10-09T02:23:46.814Z,24.53
2023-10-09T02:26:24.544Z,25.43
2023-10-09T02:29:00.159Z,25.67
2023-10-09T02:31:37.383Z,26.23
2023-10-09T02:34:13.306Z,27.00
2023-10-09T02:36:42.571Z,26.63
2023-10-09T02:39:24.238Z,27.07
2023-10-09T02:41:53.201Z,27.13
2023-10-09T02:44:25.881Z,26.37
2023-10-09T02:46:58.398Z,27.30
2023-10-09T02:49:29.482Z,26.60
2023-10-09T02:51:57.203Z,27.97
2023-10-09T02:54:36.744Z,26.80
2023-10-09T02:57:09.118Z,28.03
2023-10-09T02:59:39.800Z,28.50
2023-10-09T03:02:08.403Z,27.77
2023-10-09T03:04:38.944Z,29.43
2023-10-09T03:07:08.290Z,28.30
2023-10-09T03:09:36.330Z,28.47
2023-10-09T03:12:07.201Z,29.10
2023-10-09T03:14:39.359Z,27.57
2023-10-09T03:17:08.169Z,27.63
2023-10-09T03:19:38.749Z,27.63
2023-10-09T03:22:10.546Z,28.60
2023-10-09T03:24:38.681Z,29.03
2023-10-09T03:27:06.637Z,28.80
2023-10-09T03:29:34.729Z,29.93
2023-10-09T03:32:02.361Z,29.13
2023-10-09T03:34:32.021Z,28.90
2023-10-09T03:37:07.110Z,30.10
2023-10-09T03:39:41.765Z,30.00
2023-10-09T03:42:20.167Z,29.53
2023-10-09T03:44:53.426Z,31.00
2023-10-09T03:47:23.560Z,30.10
2023-10-09T03:49:52.600Z,31.10
2023-10-09T03:52:21.600Z,31.40
2023-10-09T03:54:50.671Z,31.23
2023-10-09T03:57:20.357Z,33.23
2023-10-09T03:59:48.811Z,32.27
2023-10-09T04:02:17.199Z,32.90
2023-10-09T04:04:48.412Z,33.40
2023-10-09T04:07:17.657Z,34.03
2023-10-09T04:09:55.120Z,32.63
2023-10-09T04:12:25.955Z,33.80
2023-10-09T04:14:58.889Z,34.97
2023-10-09T04:17:37.083Z,34.93
2023-10-09T04:20:23.754Z,34.97
2023-10-09T04:23:01.364Z,34.70
2023-10-09T04:25:30.780Z,36.90
2023-10-09T04:28:10.156Z,37.67
2023-10-09T04:30:41.759Z,36.93
2023-10-09T04:33:29.108Z,37.70
2023-10-09T04:36:11.362Z,38.17
2023-10-09T04:38:39.740Z,38.60
2023-10-09T04:41:10.389Z,38.93
2023-10-09T04:43:37.051Z,37.83
2023-10-09T04:46:14.108Z,40.30
2023-10-09T04:48:41.125Z,38.13
2023-10-09T04:51:35.551Z,39.87
2023-10-09T04:54:14.145Z,38.30
2023-10-09T04:56:53.586Z,38.77
2023-10-09T04:59:26.036Z,38.73
2023-10-09T05:02:00.110Z,39.30
2023-10-09T05:04:40.307Z,39.07
2023-10-09T05:07:22.561Z,38.57
2023-10-09T05:10:15.800Z,40.93
2023-10-09T05:12:48.586Z,41.00
2023-10-09T05:15:17.207Z,39.03
2023-10-09T05:17:53.157Z,40.93
2023-10-09T05:20:38.147Z,41.57
2023-10-09T05:23:24.518Z,40.70
2023-10-09T05:25:56.498Z,41.63
2023-10-09T05:28:32.838Z,39.90
2023-10-09T05:31:10.173Z,42.27
2023-10-09T05:33:38.887Z,40.63
2023-10-09T05:36:18.535Z,38.47
2023-10-09T05:38:59.765Z,40.20
2023-10-09T05:41:48.144Z,39.47
2023-10-09T05:44:35.177Z,38.70
2023-10-09T05:47:20.509Z,40.10
2023-10-09T05:49:55.532Z,38.37
2023-10-09T05:52:33.782Z,39.40
2023-10-09T05:55:42.011Z,37.60
2023-10-09T05:58:27.141Z,37.47
2023-10-09T06:01:13.762Z,37.40
2023-10-09T06:03:50.710Z,36.90
2023-10-09T06:06:34.159Z,35.90
2023-10-09T06:09:29.868Z,37.20
2023-10-09T06:11:57.713Z,36.00
2023-10-09T06:14:43.307Z,37.20
2023-10-09T06:17:24.429Z,36.33
2023-10-09T06:19:59.596Z,36.80
2023-10-09T06:22:44.193Z,36.07
2023-10-09T06:25:13.102Z,36.10
2023-10-09T06:27:59.088Z,35.90
2023-10-09T06:30:27.948Z,36.40
2023-10-09T06:33:20.778Z,35.20
2023-10-09T06:35:55.850Z,35.90
2023-10-09T06:38:34.832Z,34.90
2023-10-09T06:41:35.974Z,35.60
2023-10-09T06:44:07.703Z,34.80
2023-10-09T06:46:53.738Z,36.07
2023-10-09T06:49:30.668Z,35.13
2023-10-09T06:52:14.878Z,35.63
2023-10-09T06:54:50.676Z,35.73
2023-10-09T06:57:41.636Z,34.03
2023-10-09T07:00:28.133Z,34.70
2023-10-09T07:02:57.552Z,34.53
2023-10-09T07:05:32.844Z,33.83
2023-10-09T07:08:19.938Z,34.00
2023-10-09T07:11:03.829Z,34.73
2023-10-09T07:13:30.978Z,34.13
2023-10-09T07:16:16.412Z,33.67
2023-10-09T07:18:50.602Z,34.73
2023-10-09T07:21:28.925Z,34.67
2023-10-09T07:24:04.548Z,35.27
2023-10-09T07:26:38.932Z,35.10
2023-10-09T07:29:22.755Z,34.73
2023-10-09T07:31:59.210Z,36.40
2023-10-09T07:34:32.015Z,35.93
2023-10-09T07:37:05.080Z,33.73
2023-10-09T07:39:36.386Z,34.60
2023-10-09T07:42:21.002Z,33.60
2023-10-09T07:44:54.141Z,35.53
2023-10-09T07:47:34.360Z,33.07
2023-10-09T07:50:03.716Z,34.60
2023-10-09T07:52:32.769Z,36.13
2023-10-09T07:55:15.731Z,35.13
2023-10-09T07:57:53.096Z,35.63
2023-10-09T08:00:34.800Z,35.87
2023-10-09T08:03:04.396Z,35.77
2023-10-09T08:05:35.351Z,34.90
2023-10-09T08:08:40.184Z,35.10
2023-10-09T08:11:35.724Z,35.00
2023-10-09T08:14:03.835Z,37.80
2023-10-09T08:16:39.677Z,35.90
2023-10-09T08:19:33.540Z,36.60
2023-10-09T08:22:18.717Z,37.63
2023-10-09T08:24:57.276Z,37.93
2023-10-09T08:27:48.309Z,38.30
2023-10-09T08:30:30.205Z,39.23
2023-10-09T08:35:47.511Z,38.70
2023-10-09T08:38:18.207Z,37.07
2023-10-09T08:40:47.634Z,37.37
2023-10-09T08:43:17.310Z,37.73
2023-10-09T08:45:48.067Z,37.90
2023-10-09T08:48:17.507Z,37.67
2023-10-09T08:50:46.603Z,36.27
2023-10-09T08:53:14.959Z,35.90
2023-10-09T08:55:43.587Z,36.00
2023-10-09T08:58:17.060Z,36.50
2023-10-09T09:00:46.909Z,37.43
2023-10-09T09:03:17.154Z,35.70
2023-10-09T09:05:48.362Z,36.17
2023-10-09T09:08:26.939Z,37.70
2023-10-09T09:11:06.779Z,36.30
2023-10-09T09:13:35.860Z,36.37
2023-10-09T09:16:03.949Z,38.13
2023-10-09T09:18:38.870Z,38.63
2023-10-09T09:21:23.216Z,39.10
2023-10-09T09:24:02.357Z,39.90
2023-10-09T09:26:46.233Z,38.50
2023-10-09T09:29:19.125Z,37.80
2023-10-09T09:31:59.018Z,38.20
2023-10-09T09:34:30.238Z,37.40
2023-10-09T09:36:59.980Z,38.97
2023-10-09T09:39:41.885Z,39.70
2023-10-09T09:42:19.607Z,39.60
2023-10-09T09:44:49.290Z,39.23
2023-10-09T09:47:28.150Z,38.93
2023-10-09T09:50:00.804Z,37.90
2023-10-09T09:52:31.032Z,38.07
2023-10-09T09:54:59.522Z,37.90
2023-10-09T09:57:28.195Z,38.93
2023-10-09T09:59:59.211Z,38.43
2023-10-09T10:02:34.686Z,38.17
2023-10-09T10:05:08.355Z,39.83
2023-10-09T10:07:44.928Z,39.97
2023-10-09T10:10:48.952Z,39.47
2023-10-09T10:13:24.992Z,38.07
2023-10-09T10:16:15.254Z,38.67
2023-10-09T10:19:00.926Z,38.30
2023-10-09T10:21:39.832Z,39.60
2023-10-09T10:24:55.479Z,40.50
2023-10-09T10:27:27.609Z,40.00
2023-10-09T10:30:34.594Z,39.73
2023-10-09T10:33:17.169Z,41.37
2023-10-09T10:35:54.088Z,41.03
2023-10-09T10:38:35.265Z,40.73
2023-10-09T10:41:17.569Z,41.50
2023-10-09T10:44:00.882Z,40.90
2023-10-09T10:46:43.216Z,41.30
2023-10-09T10:49:22.291Z,41.10
2023-10-09T10:51:55.066Z,41.10
2023-10-09T10:54:41.700Z,40.70
2023-10-09T10:57:30.482Z,40.17
2023-10-09T11:00:13.815Z,40.47
2023-10-09T11:02:44.491Z,41.57
2023-10-09T11:05:24.730Z,39.83
2023-10-09T11:07:57.620Z,40.90
2023-10-09T11:10:32.671Z,39.70
2023-10-09T11:13:17.974Z,39.93
2023-10-09T11:15:47.619Z,41.43
2023-10-09T11:18:20.713Z,39.57
2023-10-09T11:21:18.507Z,39.87
2023-10-09T11:23:59.291Z,40.03
2023-10-09T11:26:28.778Z,39.60
2023-10-09T11:29:24.520Z,40.23
2023-10-09T11:32:02.936Z,40.17
2023-10-09T11:34:33.689Z,38.37
2023-10-09T11:37:03.335Z,40.00
2023-10-09T11:39:51.904Z,40.27
2023-10-09T11:42:36.849Z,40.43
2023-10-09T11:45:20.396Z,40.90
2023-10-09T11:47:58.334Z,40.43
2023-10-09T11:50:44.188Z,40.20
2023-10-09T11:53:34.515Z,38.90
2023-10-09T11:56:03.102Z,38.90
2023-10-09T11:58:30.808Z,40.57
2023-10-09T12:01:07.051Z,40.70
2023-10-09T12:03:35.253Z,39.90
2023-10-09T12:06:07.810Z,39.90
2023-10-09T12:08:39.053Z,39.57
2023-10-09T12:11:09.506Z,38.73
2023-10-09T12:13:39.591Z,40.50
2023-10-09T12:16:10.301Z,37.97
2023-10-09T12:18:40.244Z,40.10
2023-10-09T12:21:07.880Z,40.47
2023-10-09T12:23:37.545Z,39.90
2023-10-09T12:26:05.891Z,41.43
2023-10-09T12:28:35.709Z,42.40
2023-10-09T12:31:03.598Z,41.50
2023-10-09T12:33:32.030Z,43.30
2023-10-09T12:36:01.076Z,42.93
2023-10-09T12:38:32.759Z,41.80
2023-10-09T12:41:20.583Z,43.33
2023-10-09T12:43:48.514Z,41.97
2023-10-09T12:46:18.406Z,41.57
2023-10-09T12:48:48.105Z,40.80
2023-10-09T12:51:17.669Z,41.33
2023-10-09T12:53:46.602Z,41.20
2023-10-09T12:56:16.884Z,42.20
2023-10-09T12:58:53.852Z,43.73
2023-10-09T13:01:21.963Z,43.63
2023-10-09T13:03:50.603Z,41.97
2023-10-09T13:06:25.180Z,41.40
2023-10-09T13:08:53.483Z,42.23
2023-10-09T13:11:23.034Z,41.37
2023-10-09T13:13:52.173Z,42.87
2023-10-09T13:16:24.274Z,42.47
2023-10-09T13:18:52.642Z,41.13
2023-10-09T13:21:21.266Z,42.93
2023-10-09T13:23:51.010Z,42.87
2023-10-09T13:26:32.973Z,42.40
2023-10-09T13:29:10.283Z,42.10
2023-10-09T13:31:39.150Z,42.87
2023-10-09T13:34:11.071Z,44.80
2023-10-09T13:36:38.780Z,43.27
2023-10-09T13:39:23.749Z,43.70
2023-10-09T13:41:58.689Z,44.00
2023-10-09T13:44:28.986Z,44.83
2023-10-09T13:46:57.486Z,43.97
2023-10-09T13:49:31.151Z,46.43
2023-10-09T13:51:59.771Z,44.47
2023-10-09T13:54:40.705Z,42.87
2023-10-09T13:57:11.621Z,46.13
2023-10-09T13:59:44.915Z,43.50
2023-10-09T14:02:18.798Z,43.73
2023-10-09T14:04:48.225Z,44.67
2023-10-09T14:07:18.228Z,45.60
2023-10-09T14:09:57.386Z,45.00
2023-10-09T14:12:27.327Z,43.37
2023-10-09T14:14:56.319Z,43.37
2023-10-09T14:17:26.841Z,45.60
2023-10-09T14:19:56.114Z,45.10
2023-10-09T14:22:26.019Z,46.47
2023-10-09T14:24:56.664Z,44.30
2023-10-09T14:27:27.209Z,45.90
2023-10-09T14:30:00.125Z,45.30
2023-10-09T14:32:30.290Z,44.83
2023-10-09T14:35:02.067Z,44.17
2023-10-09T14:37:30.508Z,44.93
2023-10-09T14:39:59.902Z,44.70
2023-10-09T14:42:29.207Z,45.07
2023-10-09T14:44:58.397Z,45.77
2023-10-09T14:47:27.155Z,46.03
2023-10-09T14:49:57.633Z,47.13
2023-10-09T14:52:25.413Z,52.30
2023-10-09T14:54:53.089Z,53.03
2023-10-09T14:57:20.784Z,54.83
2023-10-09T14:59:48.485Z,56.77
2023-10-09T15:02:18.105Z,75.07
2023-10-09T15:04:45.900Z,107.33
2023-10-09T15:07:23.780Z,58.53
2023-10-09T15:10:08.937Z,50.90
2023-10-09T15:12:40.777Z,78.73
2023-10-09T15:15:14.416Z,83.97
2023-10-09T15:17:45.095Z,60.37
2023-10-09T15:20:15.522Z,48.33
2023-10-09T15:22:43.433Z,52.77
2023-10-09T15:25:15.715Z,55.13
2023-10-09T15:27:44.108Z,50.27
2023-10-09T15:30:14.854Z,47.83
2023-10-09T15:32:44.567Z,50.60
2023-10-09T15:35:14.593Z,49.67
2023-10-09T15:37:43.300Z,55.83
2023-10-09T15:40:14.970Z,49.80
2023-10-09T15:42:42.737Z,50.27
2023-10-09T15:45:11.041Z,47.80
2023-10-09T15:47:38.728Z,45.87
2023-10-09T15:50:10.467Z,48.47
2023-10-09T15:52:39.238Z,47.00
2023-10-09T15:55:14.199Z,48.23
2023-10-09T15:57:42.661Z,48.67
2023-10-09T16:00:15.054Z,49.67
2023-10-09T16:02:44.368Z,50.70
2023-10-09T16:05:14.504Z,52.00
2023-10-09T16:07:42.764Z,52.30
2023-10-09T16:10:12.164Z,51.13
2023-10-09T16:12:40.799Z,53.20
2023-10-09T16:15:09.930Z,52.67
2023-10-09T16:17:38.502Z,51.40
2023-10-09T16:20:14.803Z,53.70
2023-10-09T16:22:46.767Z,51.87
2023-10-09T16:25:14.667Z,51.83
2023-10-09T16:27:47.679Z,52.43
2023-10-09T16:30:21.418Z,51.90
2023-10-09T16:32:49.514Z,54.40
2023-10-09T16:35:17.802Z,53.80
2023-10-09T16:37:50.539Z,54.97
2023-10-09T16:40:21.524Z,55.67
2023-10-09T16:42:54.242Z,54.47
2023-10-09T16:45:21.869Z,55.90
2023-10-09T16:47:52.393Z,55.50
2023-10-09T16:50:26.549Z,57.00
2023-10-09T16:52:55.697Z,58.07
2023-10-09T16:55:25.680Z,57.07
2023-10-09T16:57:53.558Z,57.33
2023-10-09T17:00:29.466Z,58.73
2023-10-09T17:02:58.101Z,57.70
2023-10-09T17:05:33.720Z,57.63
2023-10-09T17:08:02.849Z,57.67
2023-10-09T17:10:36.219Z,57.37
2023-10-09T17:13:05.102Z,60.77
2023-10-09T17:15:36.669Z,77.83
2023-10-09T17:18:04.908Z,59.20
2023-10-09T17:20:32.615Z,61.20
2023-10-09T17:23:01.058Z,60.33
2023-10-09T17:25:32.090Z,59.60
2023-10-09T17:28:00.853Z,63.10
2023-10-09T17:30:28.951Z,63.60
2023-10-09T17:32:58.750Z,62.10
2023-10-09T17:35:28.978Z,61.63
2023-10-09T17:37:57.695Z,63.17
2023-10-09T17:40:29.180Z,60.00
2023-10-09T17:42:58.461Z,61.63
2023-10-09T17:45:26.307Z,61.83
2023-10-09T17:47:55.663Z,64.90
2023-10-09T17:50:24.393Z,62.33
2023-10-09T17:52:55.236Z,62.33
2023-10-09T17:55:24.276Z,68.00
2023-10-09T17:57:51.936Z,94.40
2023-10-09T18:00:24.403Z,76.10
2023-10-09T18:02:53.199Z,65.20
2023-10-09T18:05:21.660Z,66.33
2023-10-09T18:07:51.059Z,62.20
2023-10-09T18:10:19.243Z,61.73
2023-10-09T18:12:46.831Z,62.93
2023-10-09T18:15:15.181Z,62.93
2023-10-09T18:17:45.437Z,62.90
2023-10-09T18:20:13.791Z,61.80
2023-10-09T18:22:41.575Z,63.93
2023-10-09T18:25:10.449Z,65.23
2023-10-09T18:27:39.373Z,64.90
2023-10-09T18:30:08.976Z,65.47
2023-10-09T18:32:37.887Z,65.97
2023-10-09T18:35:10.662Z,65.33
2023-10-09T18:37:39.650Z,67.03
2023-10-09T18:40:11.480Z,68.00
2023-10-09T18:42:39.732Z,67.60
2023-10-09T18:45:10.540Z,68.13
2023-10-09T18:47:40.192Z,71.27
2023-10-09T18:50:13.012Z,68.80
2023-10-09T18:52:43.793Z,77.70
2023-10-09T18:55:13.764Z,79.80
2023-10-09T18:57:41.801Z,78.50
2023-10-09T19:00:12.085Z,81.10
2023-10-09T19:02:40.143Z,80.47
2023-10-09T19:05:09.056Z,81.50
2023-10-09T19:07:39.182Z,88.80
2023-10-09T19:10:09.111Z,86.60
2023-10-09T19:12:37.458Z,83.87
2023-10-09T19:15:07.377Z,82.93
2023-10-09T19:17:36.509Z,83.70
2023-10-09T19:20:08.451Z,93.87
2023-10-09T19:22:38.651Z,86.20
2023-10-09T19:25:10.006Z,87.83
2023-10-09T19:27:37.725Z,88.83
2023-10-09T19:30:07.828Z,90.67
2023-10-09T19:32:36.189Z,85.03
2023-10-09T19:35:03.940Z,90.73
2023-10-09T19:37:32.115Z,84.63
2023-10-09T19:40:07.524Z,85.90
2023-10-09T19:42:35.728Z,88.60
2023-10-09T19:45:03.634Z,91.17
2023-10-09T19:47:31.361Z,90.07
2023-10-09T19:49:59.783Z,93.30
2023-10-09T19:52:27.530Z,92.70
2023-10-09T19:54:56.888Z,95.67
2023-10-09T19:57:26.828Z,94.60
2023-10-09T19:59:56.092Z,100.87
2023-10-09T20:02:24.263Z,95.73
2023-10-09T20:04:52.112Z,95.27
2023-10-09T20:07:20.045Z,101.40
2023-10-09T20:09:47.718Z,95.37
2023-10-09T20:12:15.341Z,100.20
2023-10-09T20:14:44.284Z,103.60
2023-10-09T20:17:13.352Z,102.30
2023-10-09T20:19:42.732Z,99.83
2023-10-09T20:22:11.831Z,102.30
2023-10-09T20:24:39.425Z,97.03
2023-10-09T20:27:07.077Z,99.77
2023-10-09T20:29:36.064Z,105.87
2023-10-09T20:32:06.771Z,102.40
2023-10-09T20:34:34.438Z,105.60
2023-10-09T20:37:04.023Z,111.13
2023-10-09T20:39:33.712Z,115.97
2023-10-09T20:42:02.075Z,118.87
2023-10-09T20:44:29.699Z,124.23
2023-10-09T20:46:57.406Z,120.53
2023-10-09T20:49:27.938Z,120.90
2023-10-09T20:51:58.017Z,123.77
2023-10-09T20:54:26.333Z,123.87
2023-10-09T20:56:53.924Z,118.87
2023-10-09T20:59:21.972Z,124.80
2023-10-09T21:01:50.631Z,126.30
2023-10-09T21:04:18.476Z,124.80
2023-10-09T21:06:48.284Z,127.93
2023-10-09T21:09:16.124Z,122.20
2023-10-09T21:11:43.818Z,124.80
2023-10-09T21:14:12.398Z,121.63
2023-10-09T21:16:40.304Z,127.93
2023-10-09T21:19:08.069Z,127.00
2023-10-09T21:21:35.760Z,131.33
2023-10-09T21:24:05.657Z,127.40
2023-10-09T21:26:33.883Z,128.43
2023-10-09T21:29:01.685Z,135.63
2023-10-09T21:31:29.381Z,127.67
2023-10-09T21:33:57.970Z,126.40
2023-10-09T21:36:25.672Z,127.90
2023-10-09T21:38:53.359Z,124.40
2023-10-09T21:41:23.330Z,127.63
2023-10-09T21:43:54.462Z,126.40
2023-10-09T21:46:26.329Z,125.13
2023-10-09T21:48:54.462Z,129.90
2023-10-09T21:51:22.467Z,126.40
2023-10-09T21:53:51.600Z,125.57
2023-10-09T21:56:21.029Z,127.40
2023-10-09T21:58:50.405Z,125.00
2023-10-09T22:01:20.351Z,132.67
2023-10-09T22:03:49.303Z,130.80
2023-10-09T22:06:17.112Z,126.90
2023-10-09T22:08:45.763Z,129.40
2023-10-09T22:11:13.561Z,133.70
2023-10-09T22:13:41.292Z,126.70
2023-10-09T22:16:10.335Z,128.10
2023-10-09T22:18:41.540Z,126.30
2023-10-09T22:21:12.145Z,123.00
2023-10-09T22:23:46.761Z,128.70
2023-10-09T22:26:15.925Z,128.80
2023-10-09T22:28:47.104Z,124.80
2023-10-09T22:31:17.745Z,125.17
2023-10-09T22:33:51.366Z,130.83
2023-10-09T22:36:38.170Z,127.47
2023-10-09T22:39:21.693Z,123.50
2023-10-09T22:41:51.370Z,125.13
2023-10-09T22:44:20.574Z,123.73
2023-10-09T22:46:49.729Z,128.83
2023-10-09T22:49:18.679Z,124.80
2023-10-09T22:51:51.824Z,123.73
2023-10-09T22:54:24.254Z,129.37
2023-10-09T22:56:54.162Z,128.97
2023-10-09T22:59:27.870Z,134.70
2023-10-09T23:02:00.251Z,131.43
2023-10-09T23:04:39.137Z,131.57
2023-10-09T23:07:15.311Z,133.23
2023-10-09T23:09:50.844Z,129.73
2023-10-09T23:12:23.773Z,133.83
2023-10-09T23:14:53.260Z,129.37
2023-10-09T23:17:43.151Z,135.67
2023-10-09T23:20:19.574Z,135.87
2023-10-09T23:22:49.876Z,131.00
2023-10-09T23:25:28.768Z,138.47
2023-10-09T23:28:15.309Z,134.67
2023-10-09T23:30:44.917Z,137.10
2023-10-09T23:33:21.778Z,130.63
2023-10-09T23:35:51.830Z,132.93
2023-10-09T23:38:32.517Z,135.90
2023-10-09T23:41:00.466Z,138.60
2023-10-09T23:43:30.264Z,140.33
2023-10-09T23:45:59.483Z,139.63
2023-10-09T23:48:29.938Z,134.17
2023-10-09T23:51:02.850Z,135.07
2023-10-09T23:53:35.031Z,139.77
2023-10-09T23:56:09.476Z,138.57
2023-10-09T23:58:38.517Z,129.60
